Time;durP1;ratioP1;P1;durP2;ratioP2;P2;SDS_P1;SDS_P2;PMS_P1;PMS_P2;Temp;Humidity;BMP_temperature;BMP_pressure;BME280_temperature;BME280_humidity;BME280_pressure;Samples;Min_cycle;Max_cycle;Signal;HPM_P1;HPM_P2
2022/05/13 00:01:43;;;;;;;0.80;0.77;;;;;;;16.43;100.00;95700.03;5115140;28;20790;-73
2022/05/13 00:04:12;;;;;;;0.40;0.30;;;;;;;16.80;100.00;95757.97;5114896;28;20909;-73
2022/05/13 00:06:40;;;;;;;0.40;0.30;;;;;;;16.77;100.00;95745.19;5114795;28;20455;-72
2022/05/13 00:09:09;;;;;;;0.40;0.20;;;;;;;16.69;100.00;95755.78;5114230;28;20503;-72
2022/05/13 00:11:37;;;;;;;0.50;0.40;;;;;;;16.36;100.00;95758.50;5114738;28;20517;-72
2022/05/13 00:14:07;;;;;;;0.50;0.30;;;;;;;16.28;100.00;95761.06;5114501;28;20432;-71
2022/05/13 00:16:36;;;;;;;0.60;0.47;;;;;;;16.41;100.00;95758.41;5114928;28;20491;-71
2022/05/13 00:19:08;;;;;;;0.70;0.40;;;;;;;16.32;100.00;95728.06;5114438;28;20920;-72
2022/05/13 00:21:37;;;;;;;0.40;0.30;;;;;;;16.58;100.00;95751.72;5114407;28;20423;-72
2022/05/13 00:24:06;;;;;;;0.73;0.73;;;;;;;16.26;100.00;95756.00;5114298;28;20431;-70
2022/05/13 00:26:34;;;;;;;0.50;0.30;;;;;;;16.17;100.00;95730.22;5114301;28;20925;-69
2022/05/13 00:29:02;;;;;;;0.60;0.40;;;;;;;16.37;100.00;95757.41;5114156;28;20451;-69
2022/05/13 00:31:31;;;;;;;0.50;0.30;;;;;;;16.39;100.00;95744.50;5114098;28;20423;-70
2022/05/13 00:33:59;;;;;;;0.40;0.30;;;;;;;16.44;100.00;95751.69;5114100;28;20468;-69
2022/05/13 00:36:30;;;;;;;1.50;0.60;;;;;;;16.23;100.00;95745.88;5113935;28;21005;-69
2022/05/13 00:38:58;;;;;;;0.40;0.30;;;;;;;16.00;100.00;95752.16;5113928;28;20518;-69
2022/05/13 00:41:26;;;;;;;0.40;0.30;;;;;;;15.95;100.00;95725.50;5113994;28;20976;-69
2022/05/13 00:43:56;;;;;;;0.40;0.40;;;;;;;15.66;100.00;95747.06;5116106;28;20492;-69
2022/05/13 00:46:26;;;;;;;0.40;0.20;;;;;;;15.36;100.00;95736.00;5121244;28;20423;-69
2022/05/13 00:48:55;;;;;;;0.50;0.30;;;;;;;15.59;100.00;95751.19;5118236;28;21036;-69
2022/05/13 00:51:27;;;;;;;0.50;0.37;;;;;;;15.71;100.00;95733.63;5113776;28;20925;-69
2022/05/13 00:54:00;;;;;;;0.50;0.40;;;;;;;15.05;100.00;95696.34;5114086;28;20530;-69
2022/05/13 00:56:30;;;;;;;2.37;0.77;;;;;;;14.95;100.00;95747.22;5114020;28;20506;-68
2022/05/13 00:59:01;;;;;;;0.50;0.33;;;;;;;14.76;100.00;95749.06;5113609;28;20431;-68
2022/05/13 01:01:30;;;;;;;0.50;0.40;;;;;;;15.11;100.00;95718.44;5113654;28;20846;-68
2022/05/13 01:04:06;;;;;;;1.10;0.37;;;;;;;15.70;100.00;95733.94;5113516;28;20431;-68
2022/05/13 01:06:35;;;;;;;0.40;0.33;;;;;;;15.85;100.00;95725.69;5113510;28;20888;-68
2022/05/13 01:09:05;;;;;;;0.53;0.40;;;;;;;15.70;100.00;95699.19;5113201;28;20565;-68
2022/05/13 01:11:37;;;;;;;0.40;0.20;;;;;;;16.00;100.00;95741.47;5113574;28;20436;-68
2022/05/13 01:14:08;;;;;;;0.63;0.63;;;;;;;15.22;100.00;95685.19;5112030;28;20987;-68
2022/05/13 01:19:19;;;;;;;0.40;0.40;;;;;;;15.36;100.00;95699.41;5111944;28;20463;-68
2022/05/13 01:21:49;;;;;;;0.50;0.50;;;;;;;15.88;100.00;95722.41;5113235;28;20943;-68
2022/05/13 01:24:19;;;;;;;0.50;0.40;;;;;;;15.87;100.00;95732.31;5113124;28;20424;-68
2022/05/13 01:26:47;;;;;;;0.40;0.33;;;;;;;15.55;100.00;95734.16;5113127;28;20477;-68
2022/05/13 01:29:16;;;;;;;0.40;0.20;;;;;;;15.74;100.00;95738.41;5113281;28;20423;-68
2022/05/13 01:31:44;;;;;;;0.50;0.30;;;;;;;15.07;100.00;95731.59;5113239;28;20477;-68
2022/05/13 01:34:14;;;;;;;0.40;0.30;;;;;;;14.34;100.00;95744.44;5113097;28;20435;-68
2022/05/13 01:36:43;;;;;;;0.60;0.30;;;;;;;13.98;100.00;95749.28;5112928;28;20477;-68
2022/05/13 01:39:13;;;;;;;0.70;0.70;;;;;;;13.18;100.00;95677.97;5112371;28;20519;-68
2022/05/13 01:41:41;;;;;;;6.20;0.57;;;;;;;13.50;100.00;95747.50;5112858;28;20430;-68
2022/05/13 01:44:09;;;;;;;0.50;0.37;;;;;;;12.96;100.00;95688.97;5112851;28;20447;-67
2022/05/13 01:46:38;;;;;;;0.40;0.37;;;;;;;13.56;100.00;95757.03;5112694;28;20463;-67
2022/05/13 01:49:06;;;;;;;0.50;0.50;;;;;;;13.53;100.00;95754.16;5113006;28;20427;-67
2022/05/13 01:51:35;;;;;;;0.70;0.67;;;;;;;14.33;100.00;95748.19;5112702;28;20526;-67
2022/05/13 01:54:03;;;;;;;0.63;0.60;;;;;;;14.63;100.00;95717.72;5112657;28;20506;-67
2022/05/13 01:56:33;;;;;;;2.10;0.30;;;;;;;14.83;100.00;95741.50;5112378;28;20484;-67
2022/05/13 01:59:02;;;;;;;0.40;0.27;;;;;;;14.97;100.00;95734.41;5112423;28;20550;-67
2022/05/13 02:01:30;;;;;;;0.40;0.27;;;;;;;14.75;100.00;95731.44;5112508;28;20427;-67
2022/05/13 02:03:58;;;;;;;0.40;0.20;;;;;;;15.07;100.00;95736.13;5112415;28;20458;-67
2022/05/13 02:06:28;;;;;;;0.40;0.30;;;;;;;14.74;100.00;95692.50;5112671;28;20428;-67
2022/05/13 02:08:58;;;;;;;0.40;0.30;;;;;;;14.69;100.00;95723.78;5112241;28;20533;-67
2022/05/13 02:11:29;;;;;;;2.43;0.37;;;;;;;14.50;100.00;95734.41;5112401;28;20925;-67
2022/05/13 02:13:59;;;;;;;0.40;0.30;;;;;;;14.75;100.00;95736.78;5112427;28;20474;-67
2022/05/13 02:16:27;;;;;;;0.40;0.30;;;;;;;14.77;100.00;95731.19;5112377;28;20905;-67
2022/05/13 02:18:56;;;;;;;0.40;0.30;;;;;;;14.85;100.00;95734.00;5112191;28;20535;-67
2022/05/13 02:21:24;;;;;;;9.30;0.60;;;;;;;14.76;100.00;95740.25;5112316;28;20462;-67
2022/05/13 02:23:54;;;;;;;0.40;0.30;;;;;;;14.89;100.00;95732.34;5111696;28;20470;-68
2022/05/13 02:26:22;;;;;;;0.40;0.20;;;;;;;14.94;100.00;95736.84;5112478;28;20419;-66
2022/05/13 02:28:51;;;;;;;0.40;0.20;;;;;;;14.68;100.00;95732.88;5110883;28;20432;-66
2022/05/13 02:31:21;;;;;;;0.60;0.60;;;;;;;14.32;100.00;95724.47;5113990;28;20532;-66
2022/05/13 02:33:49;;;;;;;0.40;0.20;;;;;;;14.56;100.00;95741.28;5116642;28;20428;-65
2022/05/13 02:36:18;;;;;;;0.47;0.30;;;;;;;14.06;100.00;95675.91;5116674;28;20420;-66
2022/05/13 02:38:46;;;;;;;0.40;0.20;;;;;;;13.95;100.00;95639.78;5116254;28;20459;-66
2022/05/13 02:41:15;;;;;;;0.40;0.30;;;;;;;14.67;100.00;95732.09;5115514;28;20419;-66
2022/05/13 02:43:46;;;;;;;0.40;0.27;;;;;;;14.63;100.00;95718.50;5116584;28;20449;-66
2022/05/13 02:46:16;;;;;;;5.80;0.83;;;;;;;14.46;100.00;95691.50;5116397;28;20431;-67
2022/05/13 02:48:47;;;;;;;0.50;0.40;;;;;;;14.69;100.00;95743.28;5117517;28;20867;-66
2022/05/13 02:51:16;;;;;;;0.30;0.20;;;;;;;14.61;100.00;95744.69;5116064;28;20454;-66
2022/05/13 02:53:45;;;;;;;0.80;0.50;;;;;;;14.61;100.00;95735.88;5117106;28;20452;-65
2022/05/13 02:56:14;;;;;;;1.50;0.60;;;;;;;14.35;100.00;95721.22;5120501;28;20943;-66
2022/05/13 02:58:45;;;;;;;0.40;0.30;;;;;;;14.37;100.00;95743.09;5116139;28;20459;-62
2022/05/13 03:01:15;;;;;;;0.50;0.30;;;;;;;14.09;100.00;95743.84;5115883;28;20847;-65
2022/05/13 03:03:47;;;;;;;0.53;0.50;;;;;;;13.93;100.00;95706.69;5115790;28;20426;-65
2022/05/13 03:06:15;;;;;;;0.40;0.30;;;;;;;14.35;100.00;95755.88;5115939;28;20493;-66
2022/05/13 03:08:44;;;;;;;0.40;0.20;;;;;;;14.23;100.00;95752.78;5115498;28;20523;-66
2022/05/13 03:11:13;;;;;;;0.40;0.20;;;;;;;14.44;100.00;95741.69;5117048;28;20428;-66
2022/05/13 03:13:42;;;;;;;0.40;0.30;;;;;;;14.22;100.00;95705.88;5119545;28;20482;-66
2022/05/13 03:16:14;;;;;;;0.90;0.60;;;;;;;14.60;100.00;95756.44;5125096;28;20457;-66
2022/05/13 03:18:43;;;;;;;0.80;0.60;;;;;;;14.60;100.00;95758.28;5131227;28;20458;-66
2022/05/13 03:21:13;;;;;;;1.40;1.33;;;;;;;14.39;100.00;95757.72;5127490;28;20455;-66
2022/05/13 03:23:43;;;;;;;1.60;1.27;;;;;;;14.59;100.00;95759.38;5118240;28;21024;-67
2022/05/13 03:26:13;;;;;;;0.50;0.30;;;;;;;14.34;100.00;95735.66;5117745;27;20506;-64
2022/05/13 03:28:42;;;;;;;0.40;0.30;;;;;;;14.46;100.00;95755.53;5115529;28;20467;-64
2022/05/13 03:31:10;;;;;;;0.50;0.40;;;;;;;14.40;100.00;95755.84;5115206;28;20427;-64
2022/05/13 03:33:40;;;;;;;0.50;0.30;;;;;;;14.36;100.00;95752.16;5114364;28;20423;-65
2022/05/13 03:36:09;;;;;;;0.40;0.30;;;;;;;14.43;100.00;95755.28;5115092;28;20453;-65
2022/05/13 03:38:40;;;;;;;0.40;0.30;;;;;;;14.50;100.00;95751.19;5114699;28;20859;-65
2022/05/13 03:41:09;;;;;;;0.40;0.20;;;;;;;14.63;100.00;95749.72;5115290;28;20904;-65
2022/05/13 03:43:37;;;;;;;0.40;0.20;;;;;;;14.63;100.00;95757.72;5111852;28;20514;-65
2022/05/13 03:46:06;;;;;;;0.40;0.20;;;;;;;14.46;100.00;95739.53;5112563;28;20517;-65
2022/05/13 03:48:34;;;;;;;1.10;0.30;;;;;;;14.78;100.00;95773.56;5112780;28;20472;-65
2022/05/13 03:51:03;;;;;;;0.70;0.30;;;;;;;14.44;100.00;95767.53;5112938;28;20814;-65
2022/05/13 03:53:31;;;;;;;0.40;0.20;;;;;;;14.64;100.00;95772.69;5113740;28;20416;-64
2022/05/13 03:56:01;;;;;;;0.60;0.37;;;;;;;14.82;100.00;95779.16;5113535;28;21126;-64
2022/05/13 03:58:30;;;;;;;0.50;0.30;;;;;;;14.83;100.00;95775.38;5114615;28;20524;-65
2022/05/13 04:00:59;;;;;;;0.50;0.30;;;;;;;14.57;100.00;95764.22;5114698;28;20463;-65
2022/05/13 04:03:27;;;;;;;0.40;0.20;;;;;;;14.80;100.00;95782.09;5115002;28;20510;-63
2022/05/13 04:08:59;;;;;;;3.43;1.17;;;;;;;14.30;100.00;95777.22;5114405;28;20509;-63
2022/05/13 04:11:32;;;;;;;1.10;0.90;;;;;;;14.33;100.00;95779.38;5114470;28;20432;-64
2022/05/13 04:16:46;;;;;;;0.50;0.37;;;;;;;14.14;100.00;95791.78;5114477;28;20465;-63
2022/05/13 04:19:15;;;;;;;0.70;0.70;;;;;;;14.06;100.00;95790.53;5114316;28;20463;-63
2022/05/13 04:21:44;;;;;;;1.07;1.07;;;;;;;14.08;100.00;95740.41;5114148;28;20459;-63
2022/05/13 04:24:17;;;;;;;0.50;0.40;;;;;;;13.99;100.00;95780.16;5114651;28;20423;-64
2022/05/13 04:26:47;;;;;;;0.53;0.53;;;;;;;14.13;100.00;95795.53;5114226;28;20428;-64
2022/05/13 04:29:16;;;;;;;0.50;0.30;;;;;;;14.08;100.00;95774.25;5114051;28;20488;-65
2022/05/13 04:31:45;;;;;;;0.40;0.33;;;;;;;14.26;100.00;95781.56;5114053;28;20419;-65
2022/05/13 04:34:14;;;;;;;0.60;0.60;;;;;;;14.39;100.00;95783.59;5114354;28;20423;-65
2022/05/13 04:36:43;;;;;;;0.60;0.57;;;;;;;15.06;100.00;95788.72;5114398;28;20499;-64
2022/05/13 04:39:13;;;;;;;0.50;0.30;;;;;;;15.36;100.00;95790.22;5113653;28;20550;-65
2022/05/13 04:44:29;;;;;;;0.50;0.37;;;;;;;14.85;100.00;95768.69;5117358;28;20431;-65
2022/05/13 04:46:57;;;;;;;0.40;0.20;;;;;;;15.19;100.00;95782.69;5120091;28;20480;-65
2022/05/13 04:49:26;;;;;;;0.40;0.30;;;;;;;15.32;100.00;95783.88;5120337;28;20424;-65
2022/05/13 04:51:55;;;;;;;0.70;0.40;;;;;;;15.58;100.00;95781.69;5123325;28;20473;-65
2022/05/13 04:54:23;;;;;;;0.40;0.30;;;;;;;15.55;100.00;95763.56;5121012;28;20424;-65
2022/05/13 04:56:53;;;;;;;1.70;0.60;;;;;;;15.94;100.00;95774.69;5113879;28;20514;-66
2022/05/13 04:59:21;;;;;;;0.40;0.30;;;;;;;16.03;100.00;95781.00;5114183;28;20830;-66
2022/05/13 05:01:51;;;;;;;0.73;0.50;;;;;;;15.72;100.00;95778.00;5113848;28;20476;-67
2022/05/13 05:04:20;;;;;;;0.40;0.30;;;;;;;15.78;100.00;95773.38;5114708;28;20431;-66
2022/05/13 05:06:48;;;;;;;1.13;1.13;;;;;;;15.45;100.00;95774.34;5121915;28;20456;-67
2022/05/13 05:09:16;;;;;;;0.40;0.30;;;;;;;15.80;100.00;95776.53;5118409;28;20510;-68
2022/05/13 05:11:45;;;;;;;0.40;0.30;;;;;;;15.66;100.00;95740.94;5113218;28;20424;-68
2022/05/13 05:14:14;;;;;;;0.50;0.40;;;;;;;16.25;100.00;95733.00;5114189;28;20414;-68
2022/05/13 05:16:43;;;;;;;1.47;1.37;;;;;;;16.27;100.00;95762.13;5117391;27;20447;-68
2022/05/13 05:19:14;;;;;;;0.40;0.30;;;;;;;16.77;100.00;95760.47;5117193;28;20470;-70
2022/05/13 05:21:43;;;;;;;0.57;0.50;;;;;;;16.91;100.00;95754.00;5114335;28;20484;-64
2022/05/13 05:24:12;;;;;;;0.83;0.83;;;;;;;17.12;100.00;95760.56;5114631;28;20785;-65
2022/05/13 05:26:42;;;;;;;0.50;0.50;;;;;;;17.19;100.00;95757.47;5115616;28;20431;-65
2022/05/13 05:29:11;;;;;;;0.60;0.50;;;;;;;17.44;100.00;95754.25;5115586;28;20447;-65
2022/05/13 05:31:40;;;;;;;1.57;0.80;;;;;;;17.62;100.00;95750.66;5113381;28;20424;-67
2022/05/13 05:34:13;;;;;;;0.87;0.70;;;;;;;17.24;100.00;95748.53;5115494;28;20447;-69
2022/05/13 05:36:56;;;;;;;0.50;0.40;;;;;;;16.25;100.00;95564.50;5123990;28;20518;-67
2022/05/13 05:39:32;;;;;;;0.70;0.30;;;;;;;17.92;100.00;95734.94;5116741;27;20471;-69
2022/05/13 05:42:00;;;;;;;2.83;0.40;;;;;;;17.92;100.00;95673.25;5116123;28;20567;-69
2022/05/13 05:44:30;;;;;;;0.40;0.30;;;;;;;18.34;100.00;95724.47;5117593;28;20440;-68
2022/05/13 05:46:59;;;;;;;0.50;0.30;;;;;;;17.67;100.00;95635.25;5119719;28;20423;-68
2022/05/13 05:49:28;;;;;;;0.67;0.67;;;;;;;18.19;100.00;95724.88;5112433;28;20846;-68
2022/05/13 05:51:58;;;;;;;3.70;1.70;;;;;;;18.36;100.00;95724.19;5112316;28;20451;-67
2022/05/13 05:57:15;;;;;;;9.80;0.90;;;;;;;18.04;100.00;95717.19;5111923;28;20519;-65
2022/05/13 05:59:43;;;;;;;0.60;0.60;;;;;;;18.08;100.00;95728.13;5112191;28;20516;-64
2022/05/13 06:02:14;;;;;;;0.70;0.70;;;;;;;18.30;100.00;95706.63;5113858;28;20474;-64
2022/05/13 06:04:44;;;;;;;0.40;0.30;;;;;;;18.65;99.20;95700.34;5117795;28;20487;-64
2022/05/13 06:07:17;;;;;;;1.50;1.40;;;;;;;18.48;98.12;95708.31;5115862;28;20446;-63
2022/05/13 06:09:51;;;;;;;13.53;1.00;;;;;;;18.80;98.47;95704.47;5117652;28;20450;-64
2022/05/13 06:12:20;;;;;;;0.87;0.50;;;;;;;19.52;90.75;95677.94;5116263;28;20439;-63
2022/05/13 06:14:48;;;;;;;2.00;1.90;;;;;;;19.54;86.18;95694.53;5112287;28;20504;-61
2022/05/13 06:17:17;;;;;;;0.83;0.50;;;;;;;20.50;80.48;95672.53;5111889;28;20427;-62
2022/05/13 06:19:45;;;;;;;0.67;0.67;;;;;;;20.70;78.29;95685.28;5111354;28;20463;-62
2022/05/13 06:22:15;;;;;;;0.60;0.60;;;;;;;21.17;76.35;95686.81;5111553;28;20519;-62
2022/05/13 06:24:43;;;;;;;0.87;0.70;;;;;;;20.99;74.57;95611.75;5111795;28;20451;-61
2022/05/13 06:27:12;;;;;;;1.10;1.03;;;;;;;19.94;81.24;95561.41;5112167;28;20423;-61
2022/05/13 06:29:40;;;;;;;0.63;0.53;;;;;;;20.13;88.43;95682.94;5111209;28;20855;-60
2022/05/13 06:32:09;;;;;;;3.80;0.80;;;;;;;19.57;91.68;95680.47;5111326;28;20423;-61
2022/05/13 06:34:38;;;;;;;0.60;0.60;;;;;;;19.69;93.34;95639.47;5111506;28;20431;-60
2022/05/13 06:37:06;;;;;;;1.90;1.80;;;;;;;19.58;91.11;95644.41;5110725;28;20471;-60
2022/05/13 06:39:36;;;;;;;2.23;0.77;;;;;;;20.63;85.95;95671.53;5111781;28;20514;-60
2022/05/13 06:42:05;;;;;;;1.17;1.17;;;;;;;19.74;90.73;95652.75;5112082;28;20514;-60
2022/05/13 06:44:34;;;;;;;0.40;0.33;;;;;;;20.74;83.23;95665.47;5111737;28;20435;-60
2022/05/13 06:47:02;;;;;;;0.80;0.70;;;;;;;21.28;76.77;95657.53;5111031;28;20431;-60
2022/05/13 06:49:30;;;;;;;0.60;0.50;;;;;;;21.53;73.09;95579.13;5111320;28;20416;-60
2022/05/13 06:52:01;;;;;;;0.50;0.50;;;;;;;21.39;73.76;95662.22;5111471;28;20839;-59
2022/05/13 06:54:50;;;;;;;3.33;1.37;;;;;;;21.13;78.09;95655.44;5111063;28;20910;-60
2022/05/13 06:57:19;;;;;;;0.73;0.73;;;;;;;20.52;78.40;95617.25;5111699;28;20423;-60
2022/05/13 06:59:47;;;;;;;1.60;1.50;;;;;;;20.31;79.87;95605.63;5111303;28;20502;-60
2022/05/13 07:02:17;;;;;;;1.07;0.97;;;;;;;21.97;73.22;95620.00;5111591;28;20932;-60
2022/05/13 07:04:46;;;;;;;1.63;1.53;;;;;;;21.10;72.98;95634.53;5111863;28;20459;-60
2022/05/13 07:07:15;;;;;;;1.00;1.00;;;;;;;21.78;71.25;95646.66;5111210;28;20957;-61
2022/05/13 07:09:43;;;;;;;1.57;1.47;;;;;;;21.73;68.96;95574.03;5111600;28;20488;-60
2022/05/13 07:12:13;;;;;;;0.70;0.63;;;;;;;23.19;64.39;95638.66;5110677;28;20968;-62
2022/05/13 07:14:42;;;;;;;1.13;1.03;;;;;;;22.57;63.63;95625.47;5111319;28;20538;-61
2022/05/13 07:17:10;;;;;;;0.80;0.80;;;;;;;22.87;62.37;95636.84;5111215;28;20463;-62
2022/05/13 07:19:39;;;;;;;0.73;0.70;;;;;;;22.91;62.81;95618.84;5115583;28;20455;-63
2022/05/13 07:22:07;;;;;;;2.20;0.93;;;;;;;23.74;61.58;95626.31;5115100;28;20519;-63
2022/05/13 07:24:35;;;;;;;1.37;1.30;;;;;;;22.50;61.92;95617.16;5114624;28;21052;-63
2022/05/13 07:27:05;;;;;;;1.33;1.23;;;;;;;22.73;63.74;95637.22;5114941;28;20461;-63
2022/05/13 07:29:34;;;;;;;1.53;0.80;;;;;;;22.85;63.61;95624.81;5115080;28;20948;-63
2022/05/13 07:32:03;;;;;;;0.87;0.80;;;;;;;24.17;59.77;95622.84;5115621;28;20461;-63
2022/05/13 07:34:32;;;;;;;0.87;0.50;;;;;;;24.03;58.39;95625.97;5115209;28;20569;-63
2022/05/13 07:37:01;;;;;;;0.60;0.60;;;;;;;23.46;58.68;95590.34;5114942;28;20480;-64
2022/05/13 07:42:15;;;;;;;1.00;0.90;;;;;;;24.05;57.21;95615.56;5114770;28;21007;-58
2022/05/13 07:44:45;;;;;;;0.87;0.53;;;;;;;24.58;52.51;95570.84;5115110;28;20940;-55
2022/05/13 07:47:14;;;;;;;0.50;0.50;;;;;;;25.49;52.67;95610.13;5115045;28;20458;-56
2022/05/13 07:49:43;;;;;;;0.50;0.37;;;;;;;26.47;48.62;95594.91;5114580;28;20488;-56
2022/05/13 07:52:12;;;;;;;0.67;0.67;;;;;;;26.82;47.32;95600.13;5114997;28;20451;-56
2022/05/13 07:54:41;;;;;;;0.80;0.60;;;;;;;25.75;48.19;95534.22;5114406;28;20860;-56
2022/05/13 07:57:10;;;;;;;0.60;0.50;;;;;;;25.97;48.75;95595.16;5114734;28;20463;-56
2022/05/13 08:02:22;;;;;;;1.23;0.53;;;;;;;25.88;48.12;95583.75;5113818;28;20514;-56
2022/05/13 08:04:50;;;;;;;0.40;0.40;;;;;;;26.69;45.75;95568.06;5114313;28;21008;-56
2022/05/13 08:07:19;;;;;;;0.90;0.73;;;;;;;26.56;44.41;95589.22;5114352;28;20447;-56
2022/05/13 08:09:47;;;;;;;2.30;0.70;;;;;;;26.76;43.48;95581.75;5114395;28;20440;-56
2022/05/13 08:12:15;;;;;;;0.60;0.50;;;;;;;27.61;41.70;95589.97;5114086;28;20443;-56
2022/05/13 08:14:44;;;;;;;0.53;0.43;;;;;;;27.27;42.35;95584.84;5114167;28;20428;-55
2022/05/13 08:17:12;;;;;;;2.10;0.40;;;;;;;28.37;40.76;95576.75;5114427;28;20447;-55
2022/05/13 08:19:42;;;;;;;1.60;0.50;;;;;;;28.56;38.91;95576.53;5114033;28;20427;-55
2022/05/13 08:22:10;;;;;;;0.50;0.50;;;;;;;28.63;37.98;95568.44;5113841;28;20554;-55
2022/05/13 08:24:39;;;;;;;2.10;0.50;;;;;;;29.14;38.43;95562.16;5114094;28;20510;-55
2022/05/13 08:27:07;;;;;;;1.07;0.97;;;;;;;27.77;39.14;95570.69;5113550;28;20427;-55
2022/05/13 08:29:36;;;;;;;0.43;0.30;;;;;;;28.49;38.74;95568.28;5113407;28;20435;-55
2022/05/13 08:32:05;;;;;;;0.80;0.47;;;;;;;28.95;37.10;95563.97;5113873;28;20431;-54
2022/05/13 08:34:33;;;;;;;0.40;0.30;;;;;;;29.61;37.91;95559.25;5113572;28;20811;-54
2022/05/13 08:37:03;;;;;;;0.70;0.67;;;;;;;29.94;38.56;95526.19;5113636;28;20467;-54
2022/05/13 08:39:32;;;;;;;0.50;0.50;;;;;;;30.28;35.70;95545.78;5113194;28;20522;-54
2022/05/13 08:42:22;;;;;;;0.40;0.33;;;;;;;30.73;34.03;95531.34;5113744;28;20459;-53
2022/05/13 08:44:53;;;;;;;0.40;0.40;;;;;;;30.50;34.35;95546.59;5113161;28;20423;-54
2022/05/13 08:47:27;;;;;;;0.83;0.40;;;;;;;31.08;33.06;95543.41;5113745;28;20423;-54
2022/05/13 08:50:03;;;;;;;0.50;0.40;;;;;;;30.23;33.50;95545.38;5113584;28;20433;-54
2022/05/13 08:55:34;;;;;;;9.10;0.90;;;;;;;31.10;31.48;95527.34;5113482;28;20423;-61
2022/05/13 08:58:11;;;;;;;0.40;0.40;;;;;;;29.89;33.14;95515.66;5113181;28;20435;-54
2022/05/13 09:00:43;;;;;;;0.40;0.30;;;;;;;30.73;31.72;95505.91;5113082;28;20462;-54
2022/05/13 09:03:23;;;;;;;0.70;0.70;;;;;;;31.67;30.16;95517.78;5112748;28;20419;-54
2022/05/13 09:05:56;;;;;;;0.40;0.40;;;;;;;32.43;30.14;95512.19;5112762;28;20511;-54
2022/05/13 09:08:26;;;;;;;0.40;0.30;;;;;;;32.60;29.69;95508.53;5112748;28;20490;-54
2022/05/13 09:11:03;;;;;;;0.83;0.83;;;;;;;31.64;31.27;95356.88;5112756;28;20615;-54
2022/05/13 09:13:36;;;;;;;0.93;0.93;;;;;;;31.77;32.53;95483.25;5113148;28;20426;-54
2022/05/13 09:16:08;;;;;;;0.50;0.50;;;;;;;32.30;32.02;95483.69;5112950;28;20509;-54
2022/05/13 09:18:43;;;;;;;0.63;0.63;;;;;;;31.87;33.28;95491.41;5111972;28;20435;-54
2022/05/13 09:21:16;;;;;;;0.90;0.90;;;;;;;32.66;31.69;95488.88;5112319;28;20427;-54
2022/05/13 09:23:46;;;;;;;2.10;0.40;;;;;;;32.54;29.55;95493.69;5112944;28;20431;-54
2022/05/13 09:26:19;;;;;;;0.70;0.57;;;;;;;33.09;30.46;95492.78;5112430;28;20427;-54
2022/05/13 09:29:05;;;;;;;0.93;0.93;;;;;;;31.60;30.87;95481.41;5111746;28;20427;-53
2022/05/13 09:31:36;;;;;;;0.40;0.37;;;;;;;31.61;31.67;95461.03;5113042;27;20447;-53
2022/05/13 09:34:29;;;;;;;0.40;0.30;;;;;;;32.79;30.54;95478.97;5112719;28;20434;-53
2022/05/13 09:37:13;;;;;;;0.40;0.40;;;;;;;33.14;30.71;95457.38;5112321;27;21034;-53
2022/05/13 09:39:45;;;;;;;0.40;0.40;;;;;;;33.46;30.76;95465.22;5112103;28;20458;-53
2022/05/13 09:42:23;;;;;;;0.40;0.40;;;;;;;33.32;29.71;95461.91;5112080;28;20488;-53
2022/05/13 09:44:52;;;;;;;3.33;1.07;;;;;;;32.08;30.47;95463.06;5112321;28;20430;-53
2022/05/13 09:47:30;;;;;;;0.40;0.30;;;;;;;33.21;28.55;95442.78;5112517;28;20505;-53
2022/05/13 09:50:21;;;;;;;1.67;1.57;;;;;;;32.44;27.88;95373.81;5112177;28;20967;-53
2022/05/13 09:52:51;;;;;;;0.47;0.47;;;;;;;33.13;26.83;95433.84;5111791;28;20517;-52
2022/05/13 09:55:28;;;;;;;0.50;0.40;;;;;;;33.52;27.88;95422.34;5112340;28;20466;-52
2022/05/13 09:58:01;;;;;;;0.67;0.60;;;;;;;31.98;28.60;95431.00;5112291;28;20795;-53
2022/05/13 10:00:32;;;;;;;5.20;0.50;;;;;;;32.72;28.51;95432.34;5112249;28;20427;-53
2022/05/13 10:03:10;;;;;;;0.50;0.50;;;;;;;33.23;28.17;95423.91;5112442;28;20467;-53
2022/05/13 10:05:38;;;;;;;0.87;0.87;;;;;;;32.86;28.13;95427.50;5111786;28;21080;-53
2022/05/13 10:08:09;;;;;;;0.70;0.60;;;;;;;31.98;28.49;95392.63;5111768;28;20577;-53
2022/05/13 10:16:18;;;;;;;4.57;0.67;;;;;;;32.38;26.57;95394.66;5111594;28;20431;-53
2022/05/13 10:18:53;;;;;;;0.67;0.67;;;;;;;32.96;26.31;95373.63;5112055;28;20982;-54
2022/05/13 10:21:26;;;;;;;0.53;0.50;;;;;;;32.99;27.14;95392.03;5111472;28;20974;-53
2022/05/13 10:23:59;;;;;;;0.40;0.40;;;;;;;33.86;25.98;95373.56;5111907;28;20456;-53
2022/05/13 10:26:36;;;;;;;0.73;0.73;;;;;;;31.35;24.62;95268.63;5111997;28;20943;-53
2022/05/13 10:29:11;;;;;;;0.70;0.70;;;;;;;32.80;23.54;95348.72;5111436;28;20464;-53
2022/05/13 10:31:42;;;;;;;0.50;0.40;;;;;;;33.97;24.32;95329.38;5112221;28;20454;-53
2022/05/13 10:34:22;;;;;;;0.40;0.37;;;;;;;34.09;23.19;95347.25;5111760;28;20434;-53
2022/05/13 10:36:58;;;;;;;0.50;0.50;;;;;;;32.62;23.90;95346.19;5112055;28;20514;-53
2022/05/13 10:39:41;;;;;;;0.67;0.37;;;;;;;32.53;24.79;95374.13;5112041;28;20427;-53
2022/05/13 10:42:19;;;;;;;0.70;0.60;;;;;;;32.19;24.64;95365.03;5111261;28;20494;-53
2022/05/13 10:44:52;;;;;;;0.50;0.47;;;;;;;32.78;23.89;95360.13;5111471;28;20999;-53
2022/05/13 10:47:27;;;;;;;0.30;0.30;;;;;;;33.49;24.60;95351.72;5112100;28;20435;-53
2022/05/13 10:49:56;;;;;;;0.40;0.30;;;;;;;33.69;23.47;95352.63;5112011;28;20437;-53
2022/05/13 10:52:40;;;;;;;0.57;0.47;;;;;;;33.34;23.49;95259.72;5113933;28;20435;-53
2022/05/13 10:55:18;;;;;;;0.70;0.37;;;;;;;34.70;22.87;95279.66;5116333;28;20454;-53
2022/05/13 10:58:01;;;;;;;0.50;0.40;;;;;;;34.74;22.19;95335.44;5115767;28;20435;-53
2022/05/13 11:00:34;;;;;;;0.40;0.30;;;;;;;34.67;22.57;95329.28;5115488;28;20193;-54
2022/05/13 11:03:38;;;;;;;0.50;0.50;;;;;;;34.10;21.97;95311.09;5115438;28;20244;-53
2022/05/13 11:06:23;;;;;;;0.80;0.80;;;;;;;33.48;23.68;95322.69;5115184;28;20273;-54
2022/05/13 11:09:01;;;;;;;0.60;0.60;;;;;;;30.67;23.08;94955.56;5114816;28;20267;-54
2022/05/13 11:11:39;;;;;;;0.43;0.33;;;;;;;33.15;22.79;95315.31;5115672;28;20254;-54
2022/05/13 11:14:33;;;;;;;1.47;0.40;;;;;;;32.28;23.26;95302.28;5115390;28;20262;-53
2022/05/13 11:17:20;;;;;;;0.40;0.40;;;;;;;32.48;22.63;95166.00;5114881;28;20426;-54
2022/05/13 11:20:01;;;;;;;0.47;0.47;;;;;;;34.15;23.01;95287.81;5114661;28;20492;-53
2022/05/13 11:22:36;;;;;;;0.63;0.63;;;;;;;33.62;23.69;95284.00;5114935;28;20553;-54
2022/05/13 11:28:27;;;;;;;0.70;0.40;;;;;;;33.84;21.89;95268.69;5115431;28;20646;-54
2022/05/13 11:31:03;;;;;;;0.40;0.30;;;;;;;34.16;21.54;95220.56;5115183;28;20491;-53
2022/05/13 11:33:40;;;;;;;0.60;0.30;;;;;;;31.69;21.06;94747.31;5114804;28;20438;-54
2022/05/13 11:36:32;;;;;;;0.50;0.40;;;;;;;34.72;21.24;95244.22;5115180;28;20829;-53
2022/05/13 11:39:16;;;;;;;0.77;0.77;;;;;;;34.22;21.33;95235.41;5113828;28;20474;-54
2022/05/13 11:41:54;;;;;;;0.30;0.30;;;;;;;32.50;22.06;95229.47;5114518;28;20430;-54
2022/05/13 11:44:50;;;;;;;6.10;0.57;;;;;;;32.29;22.43;95042.44;5114936;28;20264;-53
2022/05/13 11:47:31;;;;;;;1.63;0.40;;;;;;;32.53;22.37;95151.88;5115236;28;20628;-53
2022/05/13 11:49:59;;;;;;;0.50;0.50;;;;;;;32.69;23.79;95225.31;5113622;28;20814;-53
2022/05/13 11:52:47;;;;;;;0.70;0.70;;;;;;;32.68;24.00;95251.22;5114842;28;20420;-49
2022/05/13 11:55:19;;;;;;;1.33;1.23;;;;;;;32.75;24.63;95177.00;5114664;28;20951;-49
2022/05/13 11:57:50;;;;;;;0.73;0.73;;;;;;;33.08;24.47;95230.28;5114828;28;20427;-49
2022/05/13 12:00:37;;;;;;;0.50;0.50;;;;;;;33.50;24.19;95242.53;5114986;28;20422;-49
2022/05/13 12:03:16;;;;;;;0.50;0.40;;;;;;;33.86;24.27;95222.31;5113930;28;20509;-49
2022/05/13 12:06:01;;;;;;;2.93;0.60;;;;;;;33.15;24.23;95221.94;5113988;28;20967;-49
2022/05/13 12:08:39;;;;;;;0.60;0.50;;;;;;;33.56;23.52;95214.22;5114306;28;20474;-49
2022/05/13 12:11:37;;;;;;;0.53;0.47;;;;;;;33.25;23.92;95201.75;5114488;28;20430;-49
2022/05/13 12:14:13;;;;;;;0.70;0.70;;;;;;;33.78;23.04;95198.88;5113772;28;20495;-49
2022/05/13 12:16:49;;;;;;;0.40;0.40;;;;;;;33.06;24.25;95216.19;5114372;28;20943;-49
2022/05/13 12:19:50;;;;;;;0.50;0.50;;;;;;;32.23;24.78;95179.25;5114324;28;20479;-54
2022/05/13 12:22:37;;;;;;;0.53;0.50;;;;;;;32.92;24.69;95219.09;5114223;28;20464;-54